Aérodrome :
LOGIN :

S'inscrire | Disclaimer

   EN    FR    IT 

 










Légende :    VFR   VFR Marginal   IFR   IFR Intensif   IFR Très Intensif
Visi : 
Plafond : 
>= 8 km
>= 3000ft
5 à 8 km
1000 à 3000 ft
1500m à 5 km
500 à 1000 ft
800 à 1500m
200 à 500 ft
< 800m
< 200 ft
Symboles :   Orages  Brouillard  Fortes neiges  Fortes précipitations  Vent > 20 kt
SIGMETs :   Divers  Orages  Givrage  Turbulence  Onde Orograph.  Cendres Volcan.






- Altitude de l'aérodrome : 510 ft


LJCE - Cerklje

DERNIER METAR :
  • 221030Z VRB02KT CAVOK 02/M01 Q1031 RMK BLU

METARs EXPIRÉS :
  • 221000Z 32001KT CAVOK 01/M01 Q1032 RMK BLU
  • 220930Z VRB01KT CAVOK 01/M02 Q1032 RMK BLU
  • 220900Z 00000KT CAVOK M00/M03 Q1032 RMK BLU
  • 220830Z 00000KT 8000 NSC M02/M03 Q1032 R09/CLRD// RMK BLU
  • 220800Z 00000KT 8000 NSC M03/M04 Q1033 R09/CLRD// RMK BLU
  • 220730Z 17002KT 8000 NSC M05/M06 Q1033 RMK BLU

TAF TAF LJCE
Valide du 22 à 09h jusqu'au 22 à 18h UTC


220800Z 2209/2218 27003KT 7000 NSC
BECMG 2209/2211 09004KT CAVOK



MET'MAP, la Météo Aéronautique d'un coup d'oeil ! - Copyright ORBIFLY Décembre 2007 - Disclaimer

ORBIFLY MET'MAP TEAM :

Programmation & Développement : Alexandra Zaïnal
Sur une idée originale de : Baudouin d'Aumeries
Assistance à la programmation : Marc-Olivier Méhu
Soutien technique & logistique : Manuel Goepfert

Contact : metmap@orbifly.com




SOURCES & CREDITS :

   NOAA